»·PEaware :: DAL928 KSLC-KBOI

DAL928 :: KSLC-KBOI

FLIGHT INFORMATION

Flight Status: Arrived
Operator:
Delta Air Lines
More flights by this operator :: More flights under this callsign
Pilot: Joe P. (13940)
Aircraft: MCDONNELL-DOUGLAS MD-82
(MD82)
More flights by this aircraft type
Origin: KSLC Salt Lake City Intl
United States
Destination: KBOI Boise Air Terminal/Gowen
United States
More flights between these airports :: More routes between these airports
Route: CGULL1 TWF BROPH SPUUD3
File this flight plan on PilotEdge
Remarks: SEL / ABCD KPIH -PBN / B3B4B5D3D4 DOF / 180707 REG / N904DL
Altitude:
(Current/Filed)
280ft
Speed:
(Current/Filed)
477kts
Departed: 07-Jul-18 07:21 AM
Arrived: 07-Jul-18 08:12 AM
Distance/Time
Traveled:
252nm/0:51
Distance/Time
To Go:
Arrived

Flight Plot

Page will automatically refresh every two minutes.

Flight plan parsing failed; only flown route is shown


Map Options




Map Legend


Flown Route
Filed Route
Departure Airport
Arrival Airport
Navaid (VOR, NDB)
Fix

Horizontal Profiles

Position Reports

Time Latitude Longitude Heading Altitude Ground
Speed
07-Jul-18 06:37 40.785586 -111.978056 231 4236ft 0kts
07-Jul-18 06:38 40.785586 -111.978056 231 4236ft 0kts
07-Jul-18 06:39 40.785586 -111.978056 231 4236ft 0kts
07-Jul-18 06:40 40.785586 -111.978056 231 4236ft 0kts
07-Jul-18 06:41 40.785586 -111.978056 231 4236ft 0kts
07-Jul-18 06:42 40.785586 -111.978056 231 4236ft 0kts
07-Jul-18 06:43 40.785586 -111.978056 231 4236ft 0kts
07-Jul-18 06:44 40.785586 -111.978056 231 4236ft 0kts
07-Jul-18 06:45 40.785586 -111.978056 231 4236ft 0kts
07-Jul-18 06:46 40.785586 -111.978056 231 4236ft 0kts
07-Jul-18 06:47 40.785586 -111.978056 231 4236ft 0kts
07-Jul-18 06:48 40.785586 -111.978056 231 4236ft 0kts
07-Jul-18 06:49 40.785586 -111.978056 231 4236ft 0kts
07-Jul-18 06:50 40.785586 -111.978056 231 4236ft 0kts
07-Jul-18 06:51 40.785586 -111.978056 231 4236ft 0kts
07-Jul-18 06:52 40.785586 -111.978056 231 4236ft 0kts
07-Jul-18 06:52 40.785586 -111.978056 231 4236ft 0kts
07-Jul-18 06:53 40.785586 -111.978056 231 4236ft 0kts
07-Jul-18 06:54 40.785586 -111.978056 231 4236ft 0kts
07-Jul-18 06:55 40.785586 -111.978056 231 4236ft 0kts
07-Jul-18 06:56 40.785586 -111.978056 231 4236ft 0kts
07-Jul-18 06:57 40.785586 -111.978056 231 4236ft 0kts
07-Jul-18 06:58 40.785586 -111.978056 231 4236ft 0kts
07-Jul-18 06:59 40.785586 -111.978056 231 4236ft 0kts
07-Jul-18 07:00 40.785586 -111.978056 231 4236ft 0kts
07-Jul-18 07:01 40.785586 -111.978056 231 4236ft 0kts
07-Jul-18 07:02 40.785586 -111.978056 231 4236ft 0kts
07-Jul-18 07:03 40.785586 -111.978056 231 4236ft 0kts
07-Jul-18 07:04 40.785586 -111.978056 231 4236ft 0kts
07-Jul-18 07:05 40.785586 -111.978056 231 4236ft 0kts
07-Jul-18 07:06 40.785586 -111.978056 231 4236ft 0kts
07-Jul-18 07:07 40.785586 -111.978056 231 4236ft 0kts
07-Jul-18 07:08 40.785682 -111.977887 236 4236ft 2kts
07-Jul-18 07:09 40.785857 -111.976876 278 4236ft 2kts
07-Jul-18 07:10 40.785778 -111.976500 292 4236ft 0kts
07-Jul-18 07:11 40.785778 -111.976500 292 4236ft 0kts
07-Jul-18 07:12 40.785796 -111.976549 296 4236ft 3kts
07-Jul-18 07:13 40.788798 -111.976974 357 4236ft 11kts
07-Jul-18 07:14 40.791243 -111.977265 352 4236ft 6kts
07-Jul-18 07:15 40.793934 -111.977627 354 4236ft 14kts
07-Jul-18 07:17 40.798944 -111.978205 355 4236ft 22kts
07-Jul-18 07:18 40.805101 -111.978898 354 4236ft 22kts
07-Jul-18 07:19 40.807403 -111.978600 71 4236ft 0kts
07-Jul-18 07:20 40.807414 -111.978555 71 4236ft 1kts
07-Jul-18 07:21 40.806943 -111.976849 159 4236ft 6kts
07-Jul-18 07:22 40.788636 -111.974545 177 4252ft 160kts
07-Jul-18 07:23 40.758788 -112.010938 290 6102ft 234kts
07-Jul-18 07:24 40.805257 -112.088485 315 7741ft 291kts
07-Jul-18 07:25 40.865124 -112.163035 314 9550ft 301kts
07-Jul-18 07:26 40.928508 -112.243726 313 11031ft 340kts
07-Jul-18 07:27 40.997603 -112.332423 312 13486ft 353kts
07-Jul-18 07:28 41.069708 -112.424483 315 15798ft 367kts
07-Jul-18 07:29 41.156479 -112.501535 324 17955ft 384kts
07-Jul-18 07:30 41.244218 -112.584027 317 20011ft 390kts
07-Jul-18 07:31 41.324149 -112.682733 306 21906ft 393kts
07-Jul-18 07:32 41.396993 -112.793488 306 23682ft 403kts
07-Jul-18 07:33 41.471784 -112.906696 305 25263ft 412kts
07-Jul-18 07:34 41.547934 -113.023581 305 26651ft 421kts
07-Jul-18 07:35 41.625388 -113.142584 304 27835ft 428kts
07-Jul-18 07:36 41.703854 -113.263995 304 28267ft 431kts
07-Jul-18 07:37 41.782773 -113.385462 304 28270ft 430kts
07-Jul-18 07:38 41.860630 -113.507346 303 28273ft 430kts
07-Jul-18 07:39 41.938780 -113.629249 304 28275ft 429kts
07-Jul-18 07:40 42.016706 -113.750701 303 28276ft 429kts
07-Jul-18 07:41 42.094151 -113.873185 303 28278ft 429kts
07-Jul-18 07:42 42.171393 -113.995447 303 28279ft 429kts
07-Jul-18 07:43 42.248714 -114.117725 303 28284ft 428kts
07-Jul-18 07:44 42.326117 -114.240653 303 28286ft 428kts
07-Jul-18 07:45 42.402988 -114.363378 302 28288ft 428kts
07-Jul-18 07:46 42.479674 -114.486298 303 28288ft 428kts
07-Jul-18 07:47 42.556196 -114.610036 302 28289ft 427kts
07-Jul-18 07:48 42.632832 -114.732975 302 28287ft 427kts
07-Jul-18 07:49 42.709763 -114.855647 301 28285ft 426kts
07-Jul-18 07:50 42.790837 -114.975119 305 28285ft 430kts
07-Jul-18 07:51 42.872890 -115.091986 306 26581ft 423kts
07-Jul-18 07:52 42.952537 -115.207250 306 23638ft 406kts
07-Jul-18 07:53 43.027312 -115.316108 305 21157ft 382kts
07-Jul-18 07:54 43.098192 -115.419570 305 18795ft 364kts
07-Jul-18 07:55 43.166269 -115.519306 305 16248ft 354kts
07-Jul-18 07:56 43.230104 -115.612040 305 15118ft 303kts
07-Jul-18 07:57 43.283528 -115.699716 293 14747ft 304kts
07-Jul-18 07:58 43.321210 -115.801513 290 12906ft 289kts
07-Jul-18 07:59 43.356858 -115.897165 293 11221ft 275kts
07-Jul-18 08:00 43.390391 -115.988672 293 10206ft 276kts
07-Jul-18 08:01 43.425025 -116.082695 295 8883ft 275kts
07-Jul-18 08:02 43.459386 -116.175533 296 7497ft 270kts
07-Jul-18 08:03 43.489910 -116.262775 294 6996ft 236kts
07-Jul-18 08:04 43.517287 -116.341975 294 6247ft 230kts
07-Jul-18 08:05 43.544771 -116.422375 293 5029ft 220kts
07-Jul-18 08:06 43.567236 -116.489699 294 4953ft 164kts
07-Jul-18 08:07 43.601015 -116.507093 52 5028ft 183kts
07-Jul-18 08:08 43.628215 -116.447676 56 4983ft 181kts
07-Jul-18 08:09 43.620984 -116.387594 136 5004ft 188kts
07-Jul-18 08:10 43.599016 -116.327393 112 4168ft 167kts
07-Jul-18 08:11 43.579438 -116.270050 114 3350ft 162kts
07-Jul-18 08:12 43.562642 -116.221015 115 2843ft 43kts
07-Jul-18 08:13 43.563688 -116.217137 4 2843ft 5kts
07-Jul-18 08:14 43.563834 -116.217119 4 2843ft 0kts
07-Jul-18 08:15 43.564752 -116.217371 313 2843ft 12kts
07-Jul-18 08:16 43.566646 -116.220169 20 2843ft 5kts
07-Jul-18 08:17 43.566944 -116.220000 22 2843ft 0kts
07-Jul-18 08:18 43.566944 -116.220000 22 2843ft 0kts
07-Jul-18 08:19 43.566944 -116.220000 22 2843ft 0kts
07-Jul-18 08:20 43.566944 -116.220000 22 2843ft 0kts
07-Jul-18 08:21 43.566944 -116.220000 22 2843ft 0kts
07-Jul-18 08:22 43.566944 -116.220000 22 2843ft 0kts
07-Jul-18 08:23 43.566944 -116.220000 22 2843ft 0kts
07-Jul-18 08:24 43.566944 -116.220000 22 2843ft 0kts
07-Jul-18 08:25 43.566944 -116.220000 22 2843ft 0kts
07-Jul-18 08:26 43.566944 -116.220000 22 2843ft 0kts
07-Jul-18 08:27 43.566944 -116.220000 22 2843ft 0kts

Navigation Log

Ident Type
Flight plan parsing failed, navigation log unavailable